Historique des mesures à Cassis (13260), France
Quotidien Résumé Janvier 17, 2022 Unités:  Métrique    US   Métrique/US
Quotidien Hebdomadaire Mensuel Annuel
  Actuel: Maximum: Minimum: Moyenne:
Température: 8.1 °C 13.8 °C 5.4 °C 9.2 °C
Point de rosée: 0.3 °C 3.6 °C -6.4 °C -2.2 °C
Humidité: 58% 58% 33% 46%
Vitesse du vent: 8.6km/h 19.1km/h 0km/h 8.8km/h
Rafales: 20.9km/h 91.8km/h - -
VentWNW - - SSW
Pression: 1023.4 hPa 1025.6 hPa 1022.9 hPa -
Précipitations: 0.0 mm      
Historical Graphs
 
 
Mesures pour : Janvier 17, 2022
Heure Temperature Point de rosée Pression Vent Vitesse du vent Rafales Humidité Pluie (par heure)
00:11 7 °C -6.4 °C 1022.9 hPa NNE 4.7 km/h 15.5 km/h 38% 0.0 mm
01:10 6.8 °C -5.9 °C 1023.4 hPa NNE 6.1 km/h 6.1 km/h 40% 0.0 mm
03:10 5.4 °C -6.3 °C 1023.9 hPa NE 8.3 km/h 91.8 km/h 43% 0.0 mm
04:11 5.4 °C -6.3 °C 1023.9 hPa NW 18.4 km/h 18.7 km/h 43% 0.0 mm
05:10 6 °C -6 °C 1024.2 hPa NNW 7.2 km/h 11.9 km/h 42% 0.0 mm
06:11 6.3 °C -3.9 °C 1024.4 hPa WNW 13.3 km/h 16.9 km/h 48% 0.0 mm
07:10 6.2 °C -3.2 °C 1024.2 hPa WNW 6.5 km/h 15.5 km/h 51% 0.0 mm
08:11 6.9 °C -4.3 °C 1024.2 hPa NNW 15.1 km/h 16.9 km/h 45% 0.0 mm
09:10 8.1 °C -4.4 °C 1024.9 hPa NNE 4 km/h 16.9 km/h 41% 0.0 mm
10:11 9.6 °C -4.5 °C 1025.2 hPa NNE 8.6 km/h 18.7 km/h 37% 0.0 mm
11:10 11.3 °C -4.1 °C 1025.6 hPa NNW 3.6 km/h 12.6 km/h 34% 0.0 mm
12:11 12.9 °C -3.1 °C 1025.4 hPa NNE 4 km/h 13 km/h 33% 0.0 mm
13:10 13.8 °C 0.4 °C 1025.2 hPa Calm   10.1 km/h 40% 0.0 mm
14:11 13.3 °C 3.4 °C 1024.8 hPa SE 3.6 km/h 7.6 km/h 51% 0.0 mm
15:10 13.3 °C 3.6 °C 1024.2 hPa SE 3.2 km/h 4.7 km/h 52% 0.0 mm
16:11 13.3 °C 1.5 °C 1024.0 hPa WNW 6.5 km/h 13.3 km/h 45% 0.0 mm
17:10 11.3 °C 1.5 °C 1023.6 hPa West 15.8 km/h 20.9 km/h 51% 0.0 mm
18:11 9.6 °C 1.2 °C 1023.6 hPa NW 19.1 km/h 20.9 km/h 56% 0.0 mm
19:10 9.1 °C 0.6 °C 1023.4 hPa NW 15.8 km/h 16.6 km/h 55% 0.0 mm
20:11 8.6 °C 0.3 °C 1023.4 hPa NW 12.2 km/h 15.1 km/h 56% 0.0 mm
21:10 8.1 °C 0.3 °C 1023.4 hPa WNW 8.6 km/h 20.9 km/h 58% 0.0 mm
Observations météo à CASSIS
WU-History script by Weather Underground - 2 mb